Time;durP1;ratioP1;P1;durP2;ratioP2;P2;SDS_P1;SDS_P2;PMS_P1;PMS_P2;Temp;Humidity;BMP_temperature;BMP_pressure;BME280_temperature;BME280_humidity;BME280_pressure;Samples;Min_cycle;Max_cycle;Signal;HPM_P1;HPM_P2
2022/09/22 00:01:49;;;;;;;8.63;5.13;;;5.40;99.90;;;;;;5026580;28;20036;-79
2022/09/22 00:04:14;;;;;;;9.20;5.53;;;5.40;99.90;;;;;;5026953;28;20087;-79
2022/09/22 00:06:46;;;;;;;8.30;5.20;;;5.40;99.90;;;;;;5027102;28;20775;-79
2022/09/22 00:09:13;;;;;;;7.67;5.30;;;5.30;99.90;;;;;;5026804;28;20036;-79
2022/09/22 00:11:44;;;;;;;6.73;4.77;;;5.40;99.90;;;;;;5025238;28;20075;-79
2022/09/22 00:14:19;;;;;;;7.70;4.87;;;5.30;99.90;;;;;;5027426;28;20048;-79
2022/09/22 00:17:11;;;;;;;9.80;5.63;;;5.30;99.90;;;;;;5026501;28;20053;-79
2022/09/22 00:19:36;;;;;;;7.53;5.00;;;5.30;99.90;;;;;;5025690;28;20117;-79
2022/09/22 00:22:04;;;;;;;9.43;5.10;;;5.30;99.90;;;;;;5024506;28;20120;-79
2022/09/22 00:24:30;;;;;;;7.47;5.30;;;5.30;99.90;;;;;;5026497;28;20458;-79
2022/09/22 00:26:57;;;;;;;9.17;5.37;;;5.30;99.90;;;;;;5026642;28;20087;-79
2022/09/22 00:29:25;;;;;;;9.17;5.20;;;5.20;99.90;;;;;;5026332;28;20057;-79
2022/09/22 00:31:51;;;;;;;7.03;4.37;;;5.20;99.90;;;;;;5026914;28;20113;-79
2022/09/22 00:34:19;;;;;;;11.67;4.90;;;5.20;99.90;;;;;;5027848;28;20421;-79
2022/09/22 00:36:45;;;;;;;7.43;4.67;;;5.20;99.90;;;;;;5029655;28;20087;-79
2022/09/22 00:39:12;;;;;;;8.23;4.80;;;5.10;99.90;;;;;;5030018;28;20041;-79
2022/09/22 00:41:40;;;;;;;7.77;4.83;;;5.10;99.90;;;;;;5030210;28;20100;-79
2022/09/22 00:44:34;;;;;;;7.33;5.17;;;5.10;99.90;;;;;;5029983;28;20029;-79
2022/09/22 00:47:06;;;;;;;7.23;4.87;;;5.00;99.90;;;;;;5030252;28;20033;-79
2022/09/22 00:49:54;;;;;;;9.67;5.20;;;5.00;99.90;;;;;;5030458;28;20087;-79
2022/09/22 00:52:42;;;;;;;7.77;5.57;;;5.00;99.90;;;;;;5029805;28;20017;-79
2022/09/22 00:55:17;;;;;;;7.37;5.13;;;5.00;99.90;;;;;;5030629;28;20038;-75
2022/09/22 00:57:45;;;;;;;8.55;5.35;;;5.00;99.90;;;;;;5031284;28;20075;-75
2022/09/22 01:00:12;;;;;;;8.63;5.30;;;4.90;99.90;;;;;;5030682;28;20052;-75
2022/09/22 01:02:39;;;;;;;9.77;5.47;;;4.90;99.90;;;;;;5030995;28;20021;-75
2022/09/22 01:05:05;;;;;;;9.23;5.20;;;4.90;99.90;;;;;;5030986;28;20021;-76
2022/09/22 01:07:30;;;;;;;8.37;4.90;;;4.90;99.90;;;;;;5029753;28;20048;-75
2022/09/22 01:09:57;;;;;;;8.53;5.30;;;4.80;99.90;;;;;;5030666;28;20042;-75
2022/09/22 01:12:24;;;;;;;7.70;5.07;;;4.80;99.90;;;;;;5030716;28;20522;-76
2022/09/22 01:15:05;;;;;;;10.40;5.17;;;4.80;99.90;;;;;;5030813;28;20025;-75
2022/09/22 01:17:33;;;;;;;8.10;5.60;;;4.80;99.90;;;;;;5030781;28;20382;-75
2022/09/22 01:20:15;;;;;;;9.57;5.30;;;4.70;99.90;;;;;;5031546;28;20095;-75
2022/09/22 01:23:27;;;;;;;8.17;5.70;;;4.70;99.90;;;;;;5031440;28;20045;-75
2022/09/22 01:26:16;;;;;;;8.43;5.50;;;4.70;99.90;;;;;;5030597;28;20064;-76
2022/09/22 01:28:47;;;;;;;8.10;5.30;;;4.70;99.90;;;;;;5030341;28;20037;-75
2022/09/22 01:31:44;;;;;;;8.57;5.27;;;4.70;99.90;;;;;;5030998;28;20056;-75
2022/09/22 01:34:30;;;;;;;7.57;4.87;;;4.60;99.90;;;;;;5030035;28;20045;-75
2022/09/22 01:37:05;;;;;;;7.40;4.83;;;4.60;99.90;;;;;;5030421;28;20087;-75
2022/09/22 01:39:42;;;;;;;9.57;4.70;;;4.60;99.90;;;;;;5030014;28;20835;-76
2022/09/22 01:42:35;;;;;;;15.33;4.70;;;4.50;99.90;;;;;;5030291;28;20029;-75
2022/09/22 01:45:08;;;;;;;5.60;4.30;;;4.50;99.90;;;;;;5029483;28;20025;-80
2022/09/22 01:47:54;;;;;;;6.30;4.43;;;4.40;99.90;;;;;;5028178;28;20667;-80
2022/09/22 01:50:24;;;;;;;8.10;4.53;;;4.40;99.90;;;;;;5028682;28;20026;-80
2022/09/22 01:52:52;;;;;;;10.17;5.70;;;4.40;99.90;;;;;;5029001;28;20087;-80
2022/09/22 01:55:28;;;;;;;6.27;4.67;;;4.30;99.90;;;;;;5028900;28;20379;-81
2022/09/22 01:58:01;;;;;;;11.17;5.63;;;4.30;99.90;;;;;;5028762;28;20049;-80
2022/09/22 02:00:27;;;;;;;10.10;4.60;;;4.30;99.90;;;;;;5027834;28;20034;-80
2022/09/22 02:03:07;;;;;;;7.33;4.57;;;4.30;99.90;;;;;;5028236;28;20030;-80
2022/09/22 02:05:40;;;;;;;7.30;4.60;;;4.30;99.90;;;;;;5028000;28;20029;-80
2022/09/22 02:08:15;;;;;;;6.90;4.33;;;4.20;99.90;;;;;;5028249;28;20030;-80
2022/09/22 02:10:44;;;;;;;7.47;4.35;;;4.20;99.90;;;;;;5028669;28;20105;-80
2022/09/22 02:13:10;;;;;;;9.37;4.53;;;4.20;99.90;;;;;;5028181;28;20040;-80
2022/09/22 02:18:29;;;;;;;7.77;4.10;;;4.20;99.90;;;;;;5028213;28;20394;-80
2022/09/22 02:20:55;;;;;;;6.13;4.38;;;4.20;99.90;;;;;;5028225;28;20445;-80
2022/09/22 02:23:21;;;;;;;7.97;4.07;;;4.10;99.90;;;;;;5027869;28;20068;-80
2022/09/22 02:25:48;;;;;;;5.50;4.17;;;4.10;99.90;;;;;;5028054;28;20367;-80
2022/09/22 02:28:16;;;;;;;7.67;4.30;;;4.10;99.90;;;;;;5027654;28;20025;-80
2022/09/22 02:30:45;;;;;;;6.03;3.97;;;4.10;99.90;;;;;;5028149;28;20033;-80
2022/09/22 02:33:12;;;;;;;5.63;3.70;;;4.00;99.90;;;;;;5027362;28;20033;-80
2022/09/22 02:35:39;;;;;;;6.63;4.20;;;4.00;99.90;;;;;;5026939;28;20033;-80
2022/09/22 02:38:19;;;;;;;5.90;3.93;;;4.00;99.90;;;;;;5026694;28;20033;-80
2022/09/22 02:40:56;;;;;;;7.10;4.13;;;4.00;99.90;;;;;;5027368;28;20041;-80
2022/09/22 02:43:42;;;;;;;7.33;4.30;;;4.00;99.90;;;;;;5027691;28;20040;-80
2022/09/22 02:46:36;;;;;;;7.07;3.97;;;3.90;99.90;;;;;;5027410;28;20359;-80
2022/09/22 02:49:06;;;;;;;7.30;4.50;;;3.90;99.90;;;;;;5027227;28;20038;-80
2022/09/22 02:51:33;;;;;;;5.93;4.23;;;3.90;99.90;;;;;;5026904;28;20367;-80
2022/09/22 02:54:00;;;;;;;4.70;3.70;;;3.90;99.90;;;;;;5027945;28;20043;-80
2022/09/22 02:56:26;;;;;;;6.93;4.30;;;3.90;99.90;;;;;;5027003;28;20494;-80
2022/09/22 02:58:51;;;;;;;5.40;4.20;;;3.80;99.90;;;;;;5027293;28;20034;-80
2022/09/22 03:01:17;;;;;;;7.60;4.53;;;3.80;99.90;;;;;;5026712;28;20090;-80
2022/09/22 03:03:43;;;;;;;5.50;4.10;;;3.80;99.90;;;;;;5026824;28;20036;-80
2022/09/22 03:06:08;;;;;;;7.20;4.30;;;3.80;99.90;;;;;;5027425;28;20026;-80
2022/09/22 03:08:34;;;;;;;10.83;4.10;;;3.80;99.90;;;;;;5027497;28;20056;-80
2022/09/22 03:10:59;;;;;;;6.60;4.03;;;3.70;99.90;;;;;;5026737;28;20030;-80
2022/09/22 03:13:25;;;;;;;6.07;4.20;;;3.70;99.90;;;;;;5027179;28;20044;-80
2022/09/22 03:15:50;;;;;;;5.00;4.20;;;3.70;99.90;;;;;;5027149;28;20033;-80
2022/09/22 03:18:16;;;;;;;5.57;4.13;;;3.70;99.90;;;;;;5026796;28;20036;-80
2022/09/22 03:20:41;;;;;;;10.03;4.70;;;3.70;99.90;;;;;;5026380;28;20029;-80
2022/09/22 03:23:07;;;;;;;6.57;4.40;;;3.60;99.90;;;;;;5026840;28;20034;-80
2022/09/22 03:25:33;;;;;;;8.50;4.93;;;3.70;99.90;;;;;;5026674;28;20470;-80
2022/09/22 03:27:58;;;;;;;6.83;4.17;;;3.70;99.90;;;;;;5027225;28;20029;-80
2022/09/22 03:30:24;;;;;;;6.67;4.43;;;3.60;99.90;;;;;;5027249;28;20040;-80
2022/09/22 03:32:49;;;;;;;7.47;4.60;;;3.60;99.90;;;;;;5026543;28;20164;-80
2022/09/22 03:35:15;;;;;;;6.37;4.37;;;3.60;99.90;;;;;;5026968;28;20036;-80
2022/09/22 03:37:40;;;;;;;8.07;4.80;;;3.60;99.90;;;;;;5026635;28;20052;-80
2022/09/22 03:40:06;;;;;;;6.00;4.77;;;3.60;99.90;;;;;;5026198;28;20502;-80
2022/09/22 03:42:34;;;;;;;7.67;4.77;;;3.60;99.90;;;;;;5025903;28;20029;-79
2022/09/22 03:44:59;;;;;;;7.13;4.97;;;3.60;99.90;;;;;;5027070;28;20858;-80
2022/09/22 03:47:25;;;;;;;6.30;4.57;;;3.60;99.90;;;;;;5026691;28;20104;-80
2022/09/22 03:49:50;;;;;;;8.20;4.30;;;3.50;99.90;;;;;;5026710;28;20124;-80
2022/09/22 03:52:16;;;;;;;7.20;4.17;;;3.50;99.90;;;;;;5027012;28;20038;-80
2022/09/22 03:54:41;;;;;;;6.70;4.17;;;3.50;99.90;;;;;;5026750;28;20454;-80
2022/09/22 03:57:07;;;;;;;7.17;5.10;;;3.50;99.90;;;;;;5026695;28;20061;-79
2022/09/22 03:59:33;;;;;;;8.37;4.43;;;3.40;99.90;;;;;;5026731;28;20040;-80
2022/09/22 04:01:59;;;;;;;7.10;4.80;;;3.40;99.90;;;;;;5025943;28;20037;-80
2022/09/22 04:04:25;;;;;;;7.77;4.47;;;3.40;99.90;;;;;;5025762;28;20029;-80
2022/09/22 04:06:50;;;;;;;7.10;4.83;;;3.30;99.90;;;;;;5026720;28;20554;-80
2022/09/22 04:09:17;;;;;;;9.33;5.70;;;3.30;99.90;;;;;;5027712;28;20075;-80
2022/09/22 04:11:43;;;;;;;10.33;5.97;;;3.30;99.90;;;;;;5028394;28;20029;-80
2022/09/22 04:14:09;;;;;;;11.07;6.67;;;3.20;99.90;;;;;;5030590;28;20083;-80
2022/09/22 04:16:34;;;;;;;10.33;5.70;;;3.20;99.90;;;;;;5030264;28;20429;-80
2022/09/22 04:19:03;;;;;;;9.20;5.83;;;3.10;99.90;;;;;;5030561;28;20056;-80
2022/09/22 04:21:30;;;;;;;8.90;5.93;;;3.10;99.90;;;;;;5029581;28;20029;-80
2022/09/22 04:23:55;;;;;;;10.97;5.00;;;3.10;99.90;;;;;;5030701;28;20167;-80
2022/09/22 04:26:21;;;;;;;8.93;4.37;;;3.00;99.90;;;;;;5030168;28;20101;-80
2022/09/22 04:28:47;;;;;;;8.07;4.93;;;3.00;99.90;;;;;;5030105;28;20112;-80
2022/09/22 04:31:12;;;;;;;6.90;5.20;;;2.90;99.90;;;;;;5030820;28;20060;-80
2022/09/22 04:33:38;;;;;;;8.60;4.57;;;2.80;99.90;;;;;;5030457;28;20033;-80
2022/09/22 04:36:04;;;;;;;7.50;5.07;;;2.70;99.90;;;;;;5029881;28;20030;-80
2022/09/22 04:38:29;;;;;;;9.03;4.40;;;2.70;99.90;;;;;;5029780;28;20033;-80
2022/09/22 04:40:56;;;;;;;6.90;4.57;;;2.70;99.90;;;;;;5029824;28;20032;-79
2022/09/22 04:43:21;;;;;;;9.57;4.90;;;2.70;99.90;;;;;;5029963;28;20025;-80
2022/09/22 04:45:47;;;;;;;9.93;4.90;;;2.70;99.90;;;;;;5028793;28;20235;-80
2022/09/22 04:48:14;;;;;;;10.73;4.63;;;2.60;99.90;;;;;;5029616;28;20025;-80
2022/09/22 04:50:39;;;;;;;11.00;6.27;;;2.60;99.90;;;;;;5029642;28;20037;-80
2022/09/22 04:53:06;;;;;;;8.90;4.83;;;2.60;99.90;;;;;;5029418;28;20079;-80
2022/09/22 04:55:32;;;;;;;9.13;4.70;;;2.60;99.90;;;;;;5028877;28;20540;-80
2022/09/22 04:57:57;;;;;;;15.57;5.40;;;2.60;99.90;;;;;;5029168;28;20132;-80
2022/09/22 05:00:27;;;;;;;9.10;5.03;;;2.60;99.90;;;;;;5029678;28;20022;-80
2022/09/22 05:02:53;;;;;;;8.53;4.83;;;2.60;99.90;;;;;;5029374;28;20831;-80
2022/09/22 05:05:19;;;;;;;11.37;4.87;;;2.60;99.90;;;;;;5028994;28;20029;-80
2022/09/22 05:07:47;;;;;;;12.80;5.50;;;2.60;99.90;;;;;;5028924;28;20104;-80
2022/09/22 05:10:16;;;;;;;10.60;5.20;;;2.60;99.90;;;;;;5028971;28;20402;-80
2022/09/22 05:12:42;;;;;;;9.50;6.13;;;2.60;99.90;;;;;;5029400;28;20514;-80
2022/09/22 05:15:10;;;;;;;9.27;5.90;;;2.70;99.90;;;;;;5029285;28;20100;-80
2022/09/22 05:17:35;;;;;;;7.83;5.90;;;2.70;99.90;;;;;;5029401;28;20071;-80
2022/09/22 05:20:05;;;;;;;8.67;6.20;;;2.70;99.90;;;;;;5028784;28;20498;-80
2022/09/22 05:22:31;;;;;;;9.13;6.23;;;2.70;99.90;;;;;;5028236;28;20513;-80
2022/09/22 05:24:57;;;;;;;10.70;6.13;;;2.70;99.90;;;;;;5028984;28;20061;-80
2022/09/22 05:27:23;;;;;;;8.73;5.80;;;2.70;99.90;;;;;;5028605;28;20036;-81
2022/09/22 05:29:48;;;;;;;9.57;6.30;;;2.80;99.90;;;;;;5028800;28;20029;-80
2022/09/22 05:32:14;;;;;;;11.17;6.47;;;2.80;99.90;;;;;;5028413;28;20030;-80
2022/09/22 05:34:39;;;;;;;13.40;6.87;;;2.80;99.90;;;;;;5028904;28;20068;-80
2022/09/22 05:37:05;;;;;;;7.97;6.10;;;2.80;99.90;;;;;;5028963;28;20025;-80
2022/09/22 05:39:31;;;;;;;8.97;5.93;;;2.80;99.90;;;;;;5028204;28;20112;-80
2022/09/22 05:41:57;;;;;;;9.73;5.77;;;2.90;99.90;;;;;;5027914;28;20116;-80
2022/09/22 05:44:22;;;;;;;15.00;6.07;;;2.90;99.90;;;;;;5027699;28;20041;-80
2022/09/22 05:46:48;;;;;;;9.43;6.20;;;2.80;99.90;;;;;;5026957;28;20026;-80
2022/09/22 05:49:14;;;;;;;11.33;5.90;;;2.90;99.90;;;;;;5028297;28;20029;-80
2022/09/22 05:51:40;;;;;;;10.63;5.90;;;2.90;99.90;;;;;;5028487;28;20077;-80
2022/09/22 05:54:05;;;;;;;10.70;5.00;;;2.90;99.90;;;;;;5028047;28;20065;-80
2022/09/22 05:56:31;;;;;;;8.00;5.20;;;2.90;99.90;;;;;;5028193;28;20045;-80
2022/09/22 05:58:57;;;;;;;9.67;5.30;;;2.90;99.90;;;;;;5028085;28;20444;-80
2022/09/22 06:01:22;;;;;;;7.87;5.63;;;3.00;99.90;;;;;;5027981;28;20029;-80
2022/09/22 06:03:48;;;;;;;9.27;5.00;;;3.10;99.90;;;;;;5027644;28;20037;-80
2022/09/22 06:06:16;;;;;;;10.53;5.23;;;3.20;99.90;;;;;;5027920;28;20029;-80
2022/09/22 06:08:42;;;;;;;8.07;5.90;;;3.20;99.90;;;;;;5027999;28;20021;-80
2022/09/22 06:11:08;;;;;;;9.97;6.10;;;3.30;99.90;;;;;;5027875;28;20041;-80
2022/09/22 06:13:34;;;;;;;13.33;6.00;;;3.40;99.90;;;;;;5029038;28;20121;-80
2022/09/22 06:16:01;;;;;;;11.57;7.70;;;3.50;99.90;;;;;;5028010;28;20083;-80
2022/09/22 06:18:26;;;;;;;9.60;6.47;;;3.50;99.90;;;;;;5027741;28;20025;-80
2022/09/22 06:20:55;;;;;;;11.03;6.00;;;3.60;99.90;;;;;;5027424;28;20414;-80
2022/09/22 06:23:21;;;;;;;8.60;6.07;;;3.70;99.90;;;;;;5027277;28;20052;-80
2022/09/22 06:25:47;;;;;;;11.47;6.30;;;3.70;99.90;;;;;;5028534;28;20021;-80
2022/09/22 06:28:13;;;;;;;10.40;6.57;;;3.80;99.90;;;;;;5028113;28;20437;-80
2022/09/22 06:30:39;;;;;;;9.00;6.67;;;3.90;99.90;;;;;;5028147;28;20528;-80
2022/09/22 06:33:06;;;;;;;13.10;7.37;;;3.90;99.90;;;;;;5027357;28;20104;-80
2022/09/22 06:35:37;;;;;;;10.23;6.67;;;4.00;99.90;;;;;;5027492;28;20100;-80
2022/09/22 06:38:05;;;;;;;9.70;6.90;;;4.10;99.90;;;;;;5027426;28;20031;-80
2022/09/22 06:40:31;;;;;;;10.00;6.93;;;4.20;99.90;;;;;;5026821;28;20044;-80
2022/09/22 06:42:58;;;;;;;11.47;7.00;;;4.30;99.90;;;;;;5026529;28;20033;-80
2022/09/22 06:45:28;;;;;;;13.17;7.20;;;4.40;99.90;;;;;;5027542;28;20087;-79
2022/09/22 06:47:57;;;;;;;11.60;7.80;;;4.50;99.90;;;;;;5026716;28;20052;-80
2022/09/22 06:50:24;;;;;;;15.70;7.83;;;4.70;99.90;;;;;;5027522;28;20041;-80
2022/09/22 06:52:50;;;;;;;18.07;7.77;;;4.70;99.90;;;;;;5026838;28;20112;-80
2022/09/22 06:55:19;;;;;;;10.87;7.10;;;4.80;99.90;;;;;;5025210;28;20104;-79
2022/09/22 06:57:45;;;;;;;16.40;7.77;;;5.00;99.90;;;;;;5026638;28;20119;-79
2022/09/22 07:00:12;;;;;;;11.90;7.90;;;5.10;99.90;;;;;;5026832;28;20029;-79
2022/09/22 07:02:38;;;;;;;15.87;8.13;;;5.20;99.90;;;;;;5027173;28;20084;-80
2022/09/22 07:05:03;;;;;;;12.77;7.60;;;5.30;99.90;;;;;;5027375;28;20101;-80
2022/09/22 07:07:31;;;;;;;11.87;6.87;;;5.50;99.90;;;;;;5026892;28;20037;-79
2022/09/22 07:09:57;;;;;;;13.53;8.00;;;5.60;99.90;;;;;;5026646;28;20036;-79
2022/09/22 07:12:24;;;;;;;18.10;8.47;;;5.80;99.90;;;;;;5026884;28;20104;-80
2022/09/22 07:14:51;;;;;;;10.30;6.77;;;5.90;99.90;;;;;;5026328;28;20400;-79
2022/09/22 07:17:20;;;;;;;12.63;8.10;;;6.10;99.90;;;;;;5026841;28;20029;-80
2022/09/22 07:19:46;;;;;;;17.97;8.10;;;6.20;99.90;;;;;;5026761;28;20477;-80
2022/09/22 07:22:14;;;;;;;16.73;7.93;;;6.40;99.90;;;;;;5026545;28;20352;-79
2022/09/22 07:24:40;;;;;;;17.53;7.40;;;6.60;99.90;;;;;;5025992;28;20033;-79
2022/09/22 07:27:07;;;;;;;18.03;7.00;;;6.70;99.90;;;;;;5026410;28;20108;-80
2022/09/22 07:29:32;;;;;;;13.57;7.30;;;6.80;99.90;;;;;;5026274;28;20029;-78
2022/09/22 07:31:58;;;;;;;17.37;6.97;;;7.00;99.90;;;;;;5026160;28;20064;-78
2022/09/22 07:34:25;;;;;;;11.17;6.30;;;7.20;99.90;;;;;;5025965;28;20057;-78
2022/09/22 07:36:51;;;;;;;9.83;5.57;;;7.30;99.90;;;;;;5026445;28;20557;-78
2022/09/22 07:39:16;;;;;;;15.17;6.27;;;7.60;99.90;;;;;;5030822;28;20243;-78
2022/09/22 07:41:42;;;;;;;18.27;6.97;;;7.70;99.90;;;;;;5031125;28;20034;-79
2022/09/22 07:46:54;;;;;;;8.63;6.20;;;8.00;99.90;;;;;;5034637;28;20051;-79
2022/09/22 07:49:21;;;;;;;13.73;6.53;;;8.10;99.90;;;;;;5034059;28;20108;-78
2022/09/22 07:51:48;;;;;;;11.73;5.80;;;8.20;99.90;;;;;;5033653;28;20030;-78
2022/09/22 07:54:14;;;;;;;8.90;5.23;;;8.40;99.90;;;;;;5032604;28;20520;-78
2022/09/22 07:56:43;;;;;;;10.00;5.60;;;8.50;99.90;;;;;;5032119;28;20057;-78
2022/09/22 07:59:11;;;;;;;14.47;5.67;;;8.70;99.90;;;;;;5032058;28;20626;-78
2022/09/22 08:01:38;;;;;;;11.27;6.17;;;8.80;99.90;;;;;;5031025;28;20379;-78
2022/09/22 08:04:04;;;;;;;9.20;5.23;;;8.90;99.90;;;;;;5029869;28;20528;-75
2022/09/22 08:06:30;;;;;;;10.37;5.37;;;9.10;99.90;;;;;;5032799;28;20037;-75
2022/09/22 08:08:56;;;;;;;8.13;4.87;;;9.10;99.90;;;;;;5034415;28;20028;-75
2022/09/22 08:11:25;;;;;;;11.70;6.00;;;9.30;99.90;;;;;;5034092;28;20037;-75
2022/09/22 08:13:59;;;;;;;6.17;4.30;;;9.50;99.90;;;;;;5034326;28;20386;-75
2022/09/22 08:16:27;;;;;;;6.03;3.73;;;9.50;99.90;;;;;;5034092;28;20040;-75
2022/09/22 08:18:57;;;;;;;9.83;4.13;;;9.70;99.90;;;;;;5033632;28;20033;-75
2022/09/22 08:21:29;;;;;;;5.20;3.40;;;9.80;99.90;;;;;;5032833;28;20208;-75
2022/09/22 08:23:55;;;;;;;6.90;4.43;;;9.90;99.90;;;;;;5031676;28;20505;-75
2022/09/22 08:26:21;;;;;;;9.97;4.83;;;10.10;99.90;;;;;;5031704;28;20057;-75
2022/09/22 08:28:54;;;;;;;8.60;4.87;;;10.20;99.90;;;;;;5031488;28;20432;-75
2022/09/22 08:31:21;;;;;;;9.93;4.87;;;10.30;99.90;;;;;;5030460;28;20038;-75
2022/09/22 08:33:48;;;;;;;10.43;5.00;;;10.30;99.90;;;;;;5030309;28;20037;-75
2022/09/22 08:36:15;;;;;;;11.00;4.97;;;10.40;99.90;;;;;;5031030;28;20070;-75
2022/09/22 08:38:41;;;;;;;10.98;5.10;;;10.60;99.90;;;;;;5030712;28;20033;-75
2022/09/22 08:41:41;;;;;;;9.10;4.97;;;10.70;99.90;;;;;;5031124;28;20390;-75
2022/09/22 08:44:09;;;;;;;6.72;4.50;;;10.90;99.90;;;;;;5030852;28;20123;-75
2022/09/22 08:46:48;;;;;;;10.20;4.38;;;11.10;99.90;;;;;;5030727;28;20032;-75
2022/09/22 08:52:32;;;;;;;6.53;3.90;;;11.30;99.90;;;;;;5030354;28;20036;-76
2022/09/22 08:54:59;;;;;;;;;;;11.60;99.90;;;;;;5031035;28;20033;-76
2022/09/22 08:57:40;;;;;;;7.55;3.10;;;12.00;99.90;;;;;;5030502;28;20385;-76
2022/09/22 09:00:08;;;;;;;7.63;2.42;;;12.10;99.90;;;;;;5028969;28;20048;-76
2022/09/22 09:02:51;;;;;;;52.00;6.18;;;12.40;99.90;;;;;;5029179;28;20107;-76
2022/09/22 09:05:29;;;;;;;4.50;2.10;;;12.50;99.90;;;;;;5029142;28;20048;-76
2022/09/22 09:08:32;;;;;;;3.78;2.47;;;12.70;99.90;;;;;;5029265;28;20036;-76
2022/09/22 09:11:28;;;;;;;2.53;1.60;;;12.80;99.90;;;;;;5028820;28;20056;-76
2022/09/22 09:14:10;;;;;;;3.10;1.75;;;12.90;99.90;;;;;;5030323;28;20033;-76
2022/09/22 09:17:06;;;;;;;7.35;2.05;;;13.20;99.90;;;;;;5028880;28;20064;-80
2022/09/22 09:19:32;;;;;;;;;;;13.40;99.90;;;;;;5028374;28;20892;-79
2022/09/22 09:22:04;;;;;;;5.28;2.00;;;13.50;99.90;;;;;;5028123;28;20341;-79
2022/09/22 09:24:51;;;;;;;5.93;2.08;;;13.50;99.90;;;;;;5028749;28;20529;-79
2022/09/22 09:27:21;;;;;;;15.75;2.45;;;13.70;99.90;;;;;;5027882;28;20052;-80
2022/09/22 09:30:03;;;;;;;12.45;2.45;;;14.00;99.90;;;;;;5028081;28;20052;-79
2022/09/22 09:32:47;;;;;;;7.68;1.50;;;14.10;99.90;;;;;;5027858;28;20065;-79
2022/09/22 09:35:35;;;;;;;3.28;1.60;;;14.20;99.90;;;;;;5028449;28;20029;-76
2022/09/22 09:38:01;;;;;;;13.00;2.35;;;14.20;99.90;;;;;;5028307;28;20105;-76
2022/09/22 09:40:27;;;;;;;3.67;1.90;;;14.30;99.90;;;;;;5027821;28;20036;-77
2022/09/22 09:43:03;;;;;;;7.28;1.95;;;14.40;99.90;;;;;;5027889;28;20069;-76
2022/09/22 09:46:05;;;;;;;6.13;2.00;;;14.50;99.90;;;;;;5028020;28;20036;-77
2022/09/22 09:48:51;;;;;;;7.05;1.73;;;14.60;99.90;;;;;;5028187;28;20052;-77
2022/09/22 09:51:18;;;;;;;6.78;1.83;;;14.70;99.90;;;;;;5027272;28;20743;-77
2022/09/22 09:53:46;;;;;;;5.05;1.85;;;14.80;99.90;;;;;;5028118;28;20425;-77
2022/09/22 09:56:28;;;;;;;5.68;1.70;;;14.80;99.90;;;;;;5027108;28;20041;-77
2022/09/22 10:01:45;;;;;;;10.90;5.05;;;14.90;99.90;;;;;;5027784;28;20035;-77
2022/09/22 10:04:31;;;;;;;3.13;2.15;;;14.90;99.90;;;;;;5028306;28;20025;-76
2022/09/22 10:07:15;;;;;;;4.20;1.70;;;15.00;99.90;;;;;;5026603;28;20033;-76
2022/09/22 10:09:42;;;;;;;4.15;2.35;;;15.30;99.90;;;;;;5027353;28;20025;-76
2022/09/22 10:12:24;;;;;;;4.13;2.00;;;15.40;99.90;;;;;;5027420;28;20034;-77
2022/09/22 10:14:51;;;;;;;5.22;1.80;;;15.40;99.90;;;;;;5027128;28;20065;-76
2022/09/22 10:17:21;;;;;;;3.47;1.70;;;15.60;99.90;;;;;;5027195;28;20154;-77
2022/09/22 10:19:46;;;;;;;6.25;1.75;;;15.70;99.90;;;;;;5027120;28;20086;-76
2022/09/22 10:22:21;;;;;;;5.45;2.05;;;15.80;99.90;;;;;;5027654;28;20061;-77
2022/09/22 10:24:54;;;;;;;2.65;1.60;;;15.70;99.90;;;;;;5027294;28;20113;-77
2022/09/22 10:27:22;;;;;;;3.50;1.70;;;15.80;99.90;;;;;;5027537;28;20022;-77
2022/09/22 10:30:09;;;;;;;8.82;1.77;;;15.90;99.90;;;;;;5026988;28;20017;-76
2022/09/22 10:32:36;;;;;;;3.78;1.48;;;16.00;99.90;;;;;;5026846;28;20088;-77
2022/09/22 10:35:28;;;;;;;1.83;1.38;;;15.90;99.90;;;;;;5027194;28;20056;-77
2022/09/22 10:38:08;;;;;;;2.25;1.42;;;15.90;99.90;;;;;;5027091;28;20033;-77
2022/09/22 10:40:36;;;;;;;2.67;1.80;;;16.10;99.90;;;;;;5027040;28;20442;-77
2022/09/22 10:43:03;;;;;;;3.45;1.55;;;16.10;99.90;;;;;;5027251;28;20076;-77
2022/09/22 10:45:45;;;;;;;4.25;1.70;;;16.30;99.90;;;;;;5026763;28;20030;-77
2022/09/22 10:48:27;;;;;;;4.90;1.70;;;16.40;99.90;;;;;;5026666;28;20029;-77
2022/09/22 10:51:19;;;;;;;2.78;1.20;;;16.50;99.90;;;;;;5026562;28;20041;-77
2022/09/22 10:54:11;;;;;;;5.38;1.67;;;16.60;99.90;;;;;;5026250;28;20030;-77
2022/09/22 10:56:48;;;;;;;3.75;1.80;;;16.40;99.90;;;;;;5026392;28;20073;-77
2022/09/22 10:59:54;;;;;;;2.50;1.70;;;16.60;99.90;;;;;;5026676;28;20064;-77
2022/09/22 11:02:37;;;;;;;3.40;1.60;;;16.60;99.90;;;;;;5024787;28;20469;-77
2022/09/22 11:14:42;;;;;;;1.95;1.30;;;16.90;99.90;;;;;;5024877;28;20111;-76
2022/09/22 11:17:25;;;;;;;3.17;1.50;;;17.00;99.90;;;;;;5024578;28;20043;-77
2022/09/22 11:20:06;;;;;;;3.38;1.60;;;17.10;99.90;;;;;;5023773;28;20611;-77
2022/09/22 11:22:38;;;;;;;3.72;1.58;;;17.20;99.90;;;;;;5026270;28;20111;-77
2022/09/22 11:25:06;;;;;;;4.15;1.70;;;17.30;99.90;;;;;;5026264;28;20407;-77
2022/09/22 11:28:02;;;;;;;2.10;1.38;;;17.30;99.90;;;;;;5026985;28;20534;-77
2022/09/22 11:30:37;;;;;;;2.15;1.40;;;17.40;99.90;;;;;;5026526;28;20025;-77
2022/09/22 11:33:44;;;;;;;2.95;1.50;;;17.60;99.90;;;;;;5026126;28;20106;-77
2022/09/22 11:36:30;;;;;;;2.28;1.45;;;17.70;99.90;;;;;;5026455;28;20064;-77
2022/09/22 11:39:21;;;;;;;3.58;1.58;;;17.80;99.90;;;;;;5026233;28;20525;-77
2022/09/22 11:42:42;;;;;;;3.03;1.58;;;18.10;99.90;;;;;;5024251;28;20446;-77
2022/09/22 11:45:18;;;;;;;4.10;2.45;;;18.30;99.90;;;;;;5023290;28;20474;-77
2022/09/22 11:48:09;;;;;;;2.20;1.77;;;18.40;99.90;;;;;;5025333;28;20178;-77
2022/09/22 11:50:59;;;;;;;1.92;1.50;;;18.40;99.90;;;;;;5026204;28;20021;-77
2022/09/22 11:53:43;;;;;;;4.22;1.50;;;18.70;99.90;;;;;;5026039;28;20175;-77
2022/09/22 11:56:11;;;;;;;2.80;1.38;;;18.90;99.90;;;;;;5025871;28;20091;-77
2022/09/22 11:58:39;;;;;;;2.47;1.50;;;19.00;99.90;;;;;;5025879;28;20127;-77
2022/09/22 12:01:09;;;;;;;2.17;1.40;;;18.80;99.90;;;;;;5025628;28;20029;-77
2022/09/22 12:03:41;;;;;;;2.67;1.67;;;18.70;99.90;;;;;;5025561;28;20029;-77
2022/09/22 12:06:11;;;;;;;1.90;1.30;;;18.90;99.90;;;;;;5026270;28;20052;-77
2022/09/22 12:08:47;;;;;;;3.90;1.50;;;18.80;99.90;;;;;;5025221;28;20402;-77
2022/09/22 12:11:15;;;;;;;3.55;1.70;;;18.80;99.90;;;;;;5026097;28;20037;-77
2022/09/22 12:13:44;;;;;;;3.90;1.40;;;18.90;99.90;;;;;;5026073;28;20018;-77
2022/09/22 12:16:24;;;;;;;4.50;1.40;;;18.80;99.90;;;;;;5026006;28;20037;-76
2022/09/22 12:19:17;;;;;;;2.60;1.52;;;18.80;99.90;;;;;;5025822;28;20386;-77
2022/09/22 12:21:53;;;;;;;1.65;1.25;;;18.80;99.90;;;;;;5025903;28;20052;-76
2022/09/22 12:24:19;;;;;;;2.30;1.40;;;18.40;99.90;;;;;;5025703;28;20036;-77
2022/09/22 12:26:47;;;;;;;3.75;1.30;;;18.40;99.90;;;;;;5026064;28;20026;-77
2022/09/22 12:29:15;;;;;;;2.38;1.30;;;18.30;99.90;;;;;;5025825;28;20410;-77
2022/09/22 12:31:47;;;;;;;2.15;1.38;;;18.40;99.90;;;;;;5029064;28;20119;-77
2022/09/22 12:34:30;;;;;;;3.00;1.33;;;18.30;99.90;;;;;;5029070;28;20022;-76
2022/09/22 12:37:07;;;;;;;3.28;1.50;;;18.20;99.90;;;;;;5029337;28;20128;-77
2022/09/22 12:39:41;;;;;;;3.10;1.58;;;18.30;99.90;;;;;;5028912;28;20029;-77
2022/09/22 12:42:20;;;;;;;2.15;1.33;;;18.50;99.90;;;;;;5027814;28;20386;-76
2022/09/22 12:44:54;;;;;;;6.38;1.77;;;18.40;99.90;;;;;;5029449;28;20049;-76
2022/09/22 12:47:33;;;;;;;2.85;1.48;;;18.50;99.90;;;;;;5028906;28;20029;-76
2022/09/22 12:50:01;;;;;;;2.00;1.25;;;18.60;99.90;;;;;;5029108;28;20025;-76
2022/09/22 12:53:16;;;;;;;2.80;1.50;;;18.70;99.90;;;;;;5028867;28;20033;-76
2022/09/22 12:55:42;;;;;;;3.08;1.40;;;18.80;99.90;;;;;;5016363;28;20034;-76
2022/09/22 12:58:19;;;;;;;3.45;1.45;;;19.10;99.90;;;;;;5028835;28;20060;-76
2022/09/22 13:00:46;;;;;;;1.80;1.25;;;19.00;99.90;;;;;;5028624;28;20030;-77
2022/09/22 13:03:24;;;;;;;10.18;2.08;;;18.90;99.90;;;;;;5029130;28;20049;-76
2022/09/22 13:06:21;;;;;;;45.45;5.70;;;18.90;99.90;;;;;;5028473;28;20192;-76
2022/09/22 13:08:53;;;;;;;3.22;1.20;;;19.00;99.90;;;;;;5026499;28;20120;-76
2022/09/22 13:11:39;;;;;;;3.75;1.45;;;18.80;99.90;;;;;;5029292;28;20033;-76
2022/09/22 13:14:43;;;;;;;2.70;1.33;;;18.80;99.90;;;;;;5028616;28;20025;-76
2022/09/22 13:17:46;;;;;;;2.25;1.10;;;19.10;99.90;;;;;;5028783;28;20036;-77
2022/09/22 13:20:14;;;;;;;2.10;1.50;;;19.00;99.90;;;;;;5028279;28;20405;-77
2022/09/22 13:22:40;;;;;;;3.72;1.77;;;18.80;99.90;;;;;;5028560;28;20390;-76
2022/09/22 13:25:27;;;;;;;2.58;1.20;;;18.80;99.90;;;;;;5028615;28;20029;-76
2022/09/22 13:28:17;;;;;;;2.00;1.30;;;18.90;99.90;;;;;;5027835;28;20041;-76
2022/09/22 13:30:44;;;;;;;4.80;1.60;;;19.00;99.90;;;;;;5028741;28;20482;-77
2022/09/22 13:33:18;;;;;;;1.95;1.50;;;18.90;99.90;;;;;;5028410;28;20028;-77
2022/09/22 13:35:44;;;;;;;2.10;1.50;;;18.90;99.90;;;;;;5028134;28;20112;-76
2022/09/22 13:38:13;;;;;;;2.25;1.30;;;18.70;99.90;;;;;;5028271;28;20477;-76